createdAt,value
2023-04-21T00:09:37.090Z,7.13
2023-04-21T00:19:59.739Z,6.55
2023-04-21T00:30:21.261Z,6.80
2023-04-21T00:40:44.479Z,7.82
2023-04-21T00:51:07.076Z,8.35
2023-04-21T01:01:31.669Z,7.53
2023-04-21T01:12:03.191Z,7.88
2023-04-21T01:22:26.807Z,7.07
2023-04-21T01:32:48.553Z,7.95
2023-04-21T01:43:11.827Z,7.20
2023-04-21T01:53:35.145Z,8.80
2023-04-21T02:03:58.368Z,7.30
2023-04-21T02:14:20.291Z,9.80
2023-04-21T02:24:44.074Z,9.82
2023-04-21T02:35:08.526Z,9.85
2023-04-21T02:45:32.250Z,8.95
2023-04-21T02:55:53.735Z,9.68
2023-04-21T03:06:16.706Z,10.02
2023-04-21T03:16:38.286Z,10.00
2023-04-21T03:27:03.534Z,10.38
2023-04-21T03:37:27.352Z,11.20
2023-04-21T03:47:54.719Z,10.85
2023-04-21T03:58:16.155Z,9.53
2023-04-21T04:08:38.850Z,12.07
2023-04-21T04:19:00.363Z,10.02
2023-04-21T04:29:23.679Z,11.02
2023-04-21T04:39:45.141Z,10.07
2023-04-21T04:50:08.844Z,10.23
2023-04-21T05:00:31.817Z,9.98
2023-04-21T05:10:54.457Z,9.77
2023-04-21T05:21:15.679Z,12.90
2023-04-21T05:31:42.047Z,10.80
2023-04-21T05:42:15.684Z,10.35
2023-04-21T05:52:39.080Z,10.90
2023-04-21T06:03:00.865Z,9.48
2023-04-21T06:13:23.948Z,9.60
2023-04-21T06:23:45.437Z,10.80
2023-04-21T06:34:08.569Z,10.85
2023-04-21T06:44:32.285Z,10.43
2023-04-21T06:54:55.139Z,8.95
2023-04-21T07:05:16.831Z,7.85
2023-04-21T07:15:39.930Z,9.80
2023-04-21T07:26:01.190Z,9.52
2023-04-21T07:36:24.629Z,8.63
2023-04-21T07:46:46.494Z,8.40
2023-04-21T07:57:10.545Z,9.23
2023-04-21T08:07:32.364Z,8.40
2023-04-21T08:17:56.596Z,8.13
2023-04-21T08:28:18.301Z,7.47
2023-04-21T08:38:44.270Z,6.70
2023-04-21T08:49:06.725Z,8.32
2023-04-21T08:59:29.834Z,7.93
2023-04-21T09:09:54.718Z,6.97
2023-04-21T09:20:19.844Z,7.80
2023-04-21T09:30:43.254Z,7.20
2023-04-21T09:41:06.571Z,7.70
2023-04-21T09:51:42.787Z,7.68
2023-04-21T10:02:13.937Z,6.85
2023-04-21T10:12:36.314Z,7.18
2023-04-21T10:23:00.191Z,7.80
2023-04-21T10:33:25.508Z,7.00
2023-04-21T10:43:51.705Z,7.03
2023-04-21T10:54:15.810Z,5.63
2023-04-21T11:04:40.297Z,6.95
2023-04-21T11:15:07.371Z,6.30
2023-04-21T11:25:31.556Z,6.63
2023-04-21T11:35:57.816Z,6.35
2023-04-21T11:46:25.696Z,6.90
2023-04-21T11:56:48.714Z,7.07
2023-04-21T12:07:11.735Z,6.32
2023-04-21T12:17:39.101Z,7.43
2023-04-21T12:28:02.129Z,6.45
2023-04-21T12:38:23.851Z,6.60
2023-04-21T12:48:46.377Z,6.15
2023-04-21T12:59:09.827Z,5.73
2023-04-21T13:09:33.765Z,5.93
2023-04-21T13:19:55.540Z,5.75
2023-04-21T13:30:18.611Z,6.03
2023-04-21T13:40:46.091Z,6.10
2023-04-21T13:51:09.277Z,5.38
2023-04-21T14:11:53.859Z,5.28
2023-04-21T14:22:15.580Z,5.77
2023-04-21T14:32:39.343Z,5.32
2023-04-21T14:43:01.237Z,4.63
2023-04-21T14:53:24.373Z,5.43
2023-04-21T15:03:46.096Z,4.83
2023-04-21T15:14:09.140Z,5.03
2023-04-21T15:24:30.564Z,4.65
2023-04-21T15:34:53.302Z,5.32
2023-04-21T15:45:17.782Z,5.10
2023-04-21T15:55:40.866Z,5.03
2023-04-21T16:06:04.072Z,4.82
2023-04-21T16:16:28.122Z,5.43
2023-04-21T16:26:49.889Z,5.22
2023-04-21T16:37:14.239Z,4.43
2023-04-21T16:47:41.661Z,4.57
2023-04-21T16:58:05.568Z,5.18
2023-04-21T17:08:27.282Z,4.40
2023-04-21T17:18:50.953Z,4.38
2023-04-21T17:39:35.930Z,4.45
2023-04-21T17:49:57.627Z,4.13
2023-04-21T18:00:21.903Z,4.88
2023-04-21T18:10:43.155Z,4.37
2023-04-21T18:21:06.060Z,4.55
2023-04-21T18:31:28.788Z,5.30
2023-04-21T18:41:52.094Z,4.65
2023-04-21T18:52:14.387Z,4.53
2023-04-21T19:02:37.174Z,4.75
2023-04-21T19:12:58.714Z,4.88
2023-04-21T19:23:21.490Z,5.32
2023-04-21T19:33:43.069Z,5.85
2023-04-21T19:44:06.406Z,6.32
2023-04-21T19:54:27.737Z,7.03
2023-04-21T20:04:50.879Z,5.30
2023-04-21T20:15:13.287Z,4.68
2023-04-21T20:25:36.367Z,5.47
2023-04-21T20:35:58.060Z,5.68
2023-04-21T20:46:21.872Z,5.15
2023-04-21T20:56:43.804Z,5.05
2023-04-21T21:07:06.636Z,5.13
2023-04-21T21:17:30.476Z,6.25
2023-04-21T21:27:53.155Z,5.95
2023-04-21T21:38:14.447Z,5.80
2023-04-21T21:48:37.295Z,6.45
2023-04-21T21:58:58.887Z,4.78
2023-04-21T22:09:22.195Z,5.25
2023-04-21T22:19:43.981Z,5.43
2023-04-21T22:30:08.725Z,5.47
2023-04-21T22:40:31.045Z,5.70
2023-04-21T22:50:54.334Z,6.10
2023-04-21T23:01:17.206Z,5.75
2023-04-21T23:11:40.545Z,5.72
2023-04-21T23:22:01.813Z,6.47
2023-04-21T23:32:24.603Z,6.18
2023-04-21T23:42:47.147Z,6.15
2023-04-21T23:53:10.386Z,5.55
